createdAt,value
2019-03-24T00:02:12.727Z,10.93
2019-03-24T00:04:59.538Z,9.13
2019-03-24T00:07:47.750Z,9.33
2019-03-24T00:10:34.656Z,7.80
2019-03-24T00:13:21.485Z,7.85
2019-03-24T00:16:08.464Z,7.20
2019-03-24T00:18:55.310Z,6.53
2019-03-24T00:21:42.225Z,9.38
2019-03-24T00:24:29.164Z,6.62
2019-03-24T00:27:15.951Z,9.03
2019-03-24T00:30:05.270Z,7.45
2019-03-24T00:32:51.771Z,6.10
2019-03-24T00:35:38.308Z,9.05
2019-03-24T00:38:25.076Z,7.80
2019-03-24T00:41:11.448Z,6.08
2019-03-24T00:43:57.971Z,7.05
2019-03-24T00:46:44.376Z,7.60
2019-03-24T00:49:31.223Z,6.12
2019-03-24T00:52:17.942Z,4.72
2019-03-24T00:55:05.400Z,7.20
2019-03-24T00:57:52.292Z,8.40
2019-03-24T01:00:43.839Z,8.05
2019-03-24T01:03:31.377Z,6.20
2019-03-24T01:06:17.793Z,5.87
2019-03-24T01:09:07.019Z,7.78
2019-03-24T01:11:59.785Z,7.90
2019-03-24T01:14:46.651Z,7.65
2019-03-24T01:17:33.548Z,5.65
2019-03-24T01:20:20.056Z,7.22
2019-03-24T01:23:06.909Z,6.55
2019-03-24T01:25:53.903Z,6.80
2019-03-24T01:28:40.255Z,4.20
2019-03-24T01:31:26.715Z,6.25
2019-03-24T01:34:13.218Z,7.58
2019-03-24T01:36:59.926Z,6.72
2019-03-24T01:39:46.517Z,4.83
2019-03-24T01:42:33.075Z,5.53
2019-03-24T01:45:19.847Z,4.62
2019-03-24T01:48:06.727Z,6.08
2019-03-24T01:50:53.211Z,5.72
2019-03-24T01:53:39.572Z,5.65
2019-03-24T01:56:25.978Z,4.60
2019-03-24T01:59:13.051Z,6.20
2019-03-24T02:01:59.839Z,6.22
2019-03-24T02:04:46.824Z,6.15
2019-03-24T02:07:33.783Z,5.10
2019-03-24T02:10:20.646Z,6.28
2019-03-24T02:13:07.163Z,4.83
2019-03-24T02:15:54.451Z,5.65
2019-03-24T02:18:41.427Z,6.40
2019-03-24T02:21:28.839Z,6.42
2019-03-24T02:24:15.840Z,8.88
2019-03-24T02:27:03.020Z,6.22
2019-03-24T02:29:49.928Z,6.58
2019-03-24T02:32:36.904Z,6.40
2019-03-24T02:35:23.780Z,7.75
2019-03-24T02:38:10.595Z,6.72
2019-03-24T02:40:57.261Z,3.52
2019-03-24T02:43:44.264Z,4.67
2019-03-24T02:46:31.111Z,5.30
2019-03-24T02:49:17.645Z,8.70
2019-03-24T02:52:04.532Z,5.28
2019-03-24T02:54:51.197Z,6.42
2019-03-24T02:57:38.062Z,4.92
2019-03-24T03:00:24.908Z,5.70
2019-03-24T03:03:11.199Z,7.30
2019-03-24T03:05:57.615Z,9.55
2019-03-24T03:08:44.528Z,7.72
2019-03-24T03:11:31.887Z,10.25
2019-03-24T03:14:18.751Z,5.10
2019-03-24T03:17:05.900Z,6.95
2019-03-24T03:19:53.821Z,6.08
2019-03-24T03:22:40.624Z,7.97
2019-03-24T03:25:27.630Z,8.65
2019-03-24T03:28:14.707Z,4.75
2019-03-24T03:31:01.576Z,6.37
2019-03-24T03:33:48.581Z,6.08
2019-03-24T03:36:35.364Z,5.85
2019-03-24T03:39:22.295Z,7.87
2019-03-24T03:42:09.058Z,7.80
2019-03-24T03:44:55.610Z,6.20
2019-03-24T03:47:42.473Z,9.25
2019-03-24T03:50:29.403Z,7.90
2019-03-24T03:53:16.329Z,5.58
2019-03-24T03:56:03.209Z,6.22
2019-03-24T03:58:49.967Z,7.53
2019-03-24T04:01:37.198Z,6.50
2019-03-24T04:04:23.871Z,6.22
2019-03-24T04:07:10.919Z,6.83
2019-03-24T04:09:57.895Z,7.33
2019-03-24T04:12:44.875Z,6.53
2019-03-24T04:15:31.688Z,7.78
2019-03-24T04:18:18.188Z,3.95
2019-03-24T04:21:05.043Z,6.00
2019-03-24T04:23:51.934Z,4.72
2019-03-24T04:26:39.797Z,8.43
2019-03-24T04:29:26.600Z,4.92
2019-03-24T04:32:13.382Z,6.28
2019-03-24T04:34:59.997Z,4.10
2019-03-24T04:37:46.943Z,7.80
2019-03-24T04:40:34.204Z,6.37
2019-03-24T04:43:20.853Z,12.30
2019-03-24T04:46:07.930Z,5.83
2019-03-24T04:48:54.805Z,5.92
2019-03-24T04:51:41.372Z,5.25
2019-03-24T04:54:28.296Z,8.93
2019-03-24T04:57:15.664Z,5.83
2019-03-24T05:00:02.648Z,8.50
2019-03-24T05:02:50.688Z,6.72
2019-03-24T05:05:38.195Z,10.58
2019-03-24T05:08:25.674Z,8.00
2019-03-24T05:11:12.253Z,6.40
2019-03-24T05:13:59.257Z,6.10
2019-03-24T05:16:46.085Z,6.85
2019-03-24T05:19:33.161Z,5.80
2019-03-24T05:22:20.204Z,6.87
2019-03-24T05:25:06.659Z,6.12
2019-03-24T05:27:53.380Z,7.03
2019-03-24T05:30:40.410Z,6.03
2019-03-24T05:33:27.179Z,6.35
2019-03-24T05:36:13.691Z,6.28
2019-03-24T05:39:00.326Z,6.30
2019-03-24T05:41:47.122Z,8.58
2019-03-24T05:44:34.051Z,6.87
2019-03-24T05:47:20.619Z,5.92
2019-03-24T05:50:07.520Z,4.65
2019-03-24T05:52:54.404Z,4.20
2019-03-24T05:55:41.403Z,9.40
2019-03-24T05:58:27.788Z,9.73
2019-03-24T06:01:17.551Z,7.65
2019-03-24T06:04:04.247Z,7.33
2019-03-24T06:06:51.072Z,6.42
2019-03-24T06:09:38.078Z,6.60
2019-03-24T06:12:24.508Z,6.50
2019-03-24T06:15:11.743Z,6.35
2019-03-24T06:17:58.491Z,7.25
2019-03-24T06:20:44.839Z,8.65
2019-03-24T06:23:31.812Z,8.53
2019-03-24T06:26:18.708Z,8.43
2019-03-24T06:29:05.100Z,6.03
2019-03-24T06:31:52.514Z,6.67
2019-03-24T06:34:39.320Z,8.58
2019-03-24T06:37:26.316Z,6.62
2019-03-24T06:40:13.383Z,5.87
2019-03-24T06:43:00.279Z,5.83
2019-03-24T06:45:47.307Z,7.22
2019-03-24T06:48:34.296Z,7.30
2019-03-24T06:51:23.228Z,5.87
2019-03-24T06:54:09.679Z,6.25
2019-03-24T06:56:56.495Z,8.43
2019-03-24T06:59:43.693Z,5.25
2019-03-24T07:02:29.919Z,7.10
2019-03-24T07:05:16.355Z,9.08
2019-03-24T07:08:03.264Z,7.72
2019-03-24T07:10:50.191Z,6.85
2019-03-24T07:13:38.041Z,6.12
2019-03-24T07:16:26.343Z,8.35
2019-03-24T07:19:12.995Z,9.78
2019-03-24T07:21:59.424Z,9.10
2019-03-24T07:24:46.247Z,7.28
2019-03-24T07:27:33.201Z,5.67
2019-03-24T07:30:19.868Z,6.72
2019-03-24T07:33:06.570Z,6.50
2019-03-24T07:35:53.483Z,8.55
2019-03-24T07:38:40.247Z,9.78
2019-03-24T07:41:27.158Z,7.42
2019-03-24T07:44:13.662Z,11.12
2019-03-24T07:47:06.476Z,7.10
2019-03-24T07:49:53.039Z,6.72
2019-03-24T07:52:39.884Z,7.05
2019-03-24T07:55:26.922Z,6.62
2019-03-24T07:58:13.836Z,9.00
2019-03-24T08:01:01.316Z,6.92
2019-03-24T08:03:47.926Z,6.08
2019-03-24T08:06:19.399Z,6.58
2019-03-24T08:08:54.859Z,5.87
2019-03-24T08:11:27.443Z,5.72
2019-03-24T08:13:59.064Z,8.03
2019-03-24T08:16:43.937Z,6.28
2019-03-24T08:19:19.614Z,8.90
2019-03-24T08:21:52.644Z,7.22
2019-03-24T08:24:26.007Z,3.45
2019-03-24T08:27:00.497Z,7.22
2019-03-24T08:30:02.853Z,8.13
2019-03-24T08:32:36.271Z,4.65
2019-03-24T08:35:13.012Z,6.37
2019-03-24T08:37:51.831Z,8.00
2019-03-24T08:40:42.711Z,8.18
2019-03-24T08:43:15.672Z,7.60
2019-03-24T08:45:44.957Z,9.80
2019-03-24T08:48:29.173Z,14.35
2019-03-24T08:50:58.244Z,9.98
2019-03-24T08:53:27.226Z,10.63
2019-03-24T08:56:05.896Z,10.20
2019-03-24T08:58:42.176Z,13.43
2019-03-24T09:01:20.125Z,13.18
2019-03-24T09:03:54.787Z,10.65
2019-03-24T09:06:49.830Z,7.35
2019-03-24T09:09:48.772Z,7.05
2019-03-24T09:12:21.923Z,8.38
2019-03-24T09:15:15.281Z,12.43
2019-03-24T09:18:18.808Z,12.00
2019-03-24T09:20:57.559Z,8.78
2019-03-24T09:23:36.395Z,10.25
2019-03-24T09:26:23.449Z,9.60
2019-03-24T09:28:59.371Z,7.50
2019-03-24T09:31:40.359Z,7.62
2019-03-24T09:34:29.634Z,6.50
2019-03-24T09:37:02.426Z,9.75
2019-03-24T09:39:48.580Z,9.00
2019-03-24T09:42:28.309Z,19.77
2019-03-24T09:44:58.708Z,18.20
2019-03-24T09:47:45.084Z,20.72
2019-03-24T09:50:31.625Z,22.50
2019-03-24T09:53:20.324Z,41.75
2019-03-24T09:56:07.066Z,28.12
2019-03-24T09:58:54.041Z,27.60
2019-03-24T10:01:40.897Z,42.23
2019-03-24T10:04:27.232Z,30.20
2019-03-24T10:07:14.408Z,26.02
2019-03-24T10:10:01.208Z,25.77
2019-03-24T10:12:49.487Z,27.52
2019-03-24T10:15:36.072Z,22.98
2019-03-24T10:18:23.039Z,21.60
2019-03-24T10:21:09.804Z,26.52
2019-03-24T10:23:56.331Z,23.20
2019-03-24T10:26:43.252Z,19.65
2019-03-24T10:29:30.152Z,12.37
2019-03-24T10:32:17.126Z,14.78
2019-03-24T10:35:04.319Z,17.73
2019-03-24T10:37:51.055Z,14.80
2019-03-24T10:40:37.430Z,21.10
2019-03-24T10:43:24.444Z,14.30
2019-03-24T10:46:11.336Z,20.02
2019-03-24T10:48:58.151Z,21.87
2019-03-24T10:51:45.194Z,16.97
2019-03-24T10:54:32.017Z,15.23
2019-03-24T10:57:19.352Z,13.35
2019-03-24T11:00:08.124Z,13.93
2019-03-24T11:02:54.736Z,14.13
2019-03-24T11:05:42.017Z,15.15
2019-03-24T11:08:28.755Z,15.85
2019-03-24T11:11:16.807Z,12.95
2019-03-24T11:14:03.104Z,11.73
2019-03-24T11:16:50.050Z,8.03
2019-03-24T11:19:37.121Z,15.72
2019-03-24T11:22:24.027Z,9.43
2019-03-24T11:25:11.089Z,7.22
2019-03-24T11:27:58.051Z,12.10
2019-03-24T11:30:44.919Z,14.03
2019-03-24T11:33:31.653Z,10.63
2019-03-24T11:36:18.285Z,11.90
2019-03-24T11:39:06.615Z,12.25
2019-03-24T11:41:53.080Z,12.68
2019-03-24T11:44:40.047Z,8.95
2019-03-24T11:47:28.222Z,7.70
2019-03-24T11:50:16.160Z,10.20
2019-03-24T11:53:03.187Z,10.88
2019-03-24T11:55:49.591Z,12.07
2019-03-24T11:58:36.641Z,10.63
2019-03-24T12:01:25.827Z,6.50
2019-03-24T12:04:12.864Z,8.23
2019-03-24T12:06:59.847Z,9.03
2019-03-24T12:09:47.101Z,8.43
2019-03-24T12:12:33.972Z,13.85
2019-03-24T12:15:21.153Z,7.58
2019-03-24T12:18:08.023Z,7.47
2019-03-24T12:20:55.039Z,6.65
2019-03-24T12:23:41.708Z,7.47
2019-03-24T12:26:28.635Z,6.17
2019-03-24T12:29:15.372Z,6.90
2019-03-24T12:32:02.095Z,7.03
2019-03-24T12:34:48.910Z,4.45
2019-03-24T12:37:35.799Z,8.58
2019-03-24T12:40:22.679Z,7.08
2019-03-24T12:43:19.094Z,6.28
2019-03-24T12:45:57.841Z,5.72
2019-03-24T12:48:44.940Z,5.53
2019-03-24T12:51:31.915Z,5.83
2019-03-24T12:54:22.640Z,6.28
2019-03-24T12:57:09.180Z,6.10
2019-03-24T12:59:56.240Z,7.35
2019-03-24T13:02:43.179Z,8.60
2019-03-24T13:05:31.612Z,11.65
2019-03-24T13:08:24.496Z,9.98
2019-03-24T13:11:08.273Z,9.05
2019-03-24T13:14:03.450Z,9.73
2019-03-24T13:17:06.669Z,13.70
2019-03-24T13:19:57.933Z,8.00
2019-03-24T13:22:45.768Z,10.50
2019-03-24T13:25:40.750Z,7.58
2019-03-24T13:28:33.795Z,16.52
2019-03-24T13:31:21.619Z,17.92
2019-03-24T13:33:52.553Z,16.52
2019-03-24T13:36:24.263Z,19.07
2019-03-24T13:38:56.953Z,14.28
2019-03-24T13:41:26.102Z,23.00
2019-03-24T13:43:55.476Z,19.82
2019-03-24T13:46:40.141Z,25.88
2019-03-24T13:49:16.983Z,18.40
2019-03-24T13:51:49.155Z,13.48
2019-03-24T13:54:18.716Z,16.50
2019-03-24T13:56:51.073Z,12.85
2019-03-24T13:59:49.510Z,8.70
2019-03-24T14:02:46.941Z,19.57
2019-03-24T14:05:42.871Z,15.23
2019-03-24T14:08:31.533Z,22.65
2019-03-24T14:11:11.015Z,26.02
2019-03-24T14:14:02.614Z,23.77
2019-03-24T14:16:38.061Z,18.98
2019-03-24T14:19:17.494Z,21.42
2019-03-24T14:22:17.524Z,21.37
2019-03-24T14:25:12.931Z,11.05
2019-03-24T14:27:55.441Z,13.75
2019-03-24T14:30:49.444Z,17.32
2019-03-24T14:33:57.385Z,10.70
2019-03-24T14:42:39.255Z,20.97
2019-03-24T14:45:12.499Z,25.90
2019-03-24T14:47:44.193Z,22.77
2019-03-24T14:50:30.622Z,19.73
2019-03-24T14:53:31.120Z,16.25
2019-03-24T14:56:27.847Z,12.85
2019-03-24T14:59:11.214Z,12.93
2019-03-24T15:01:51.041Z,16.45
2019-03-24T15:04:32.214Z,9.40
2019-03-24T15:07:05.585Z,6.10
2019-03-24T15:09:43.796Z,8.03
2019-03-24T15:12:28.608Z,9.80
2019-03-24T15:15:14.991Z,21.25
2019-03-24T15:18:06.119Z,18.40
2019-03-24T15:20:40.887Z,10.72
2019-03-24T15:23:14.134Z,9.55
2019-03-24T15:25:48.731Z,13.13
2019-03-24T15:28:35.826Z,5.83
2019-03-24T15:31:20.792Z,13.20
2019-03-24T15:34:07.319Z,5.78
2019-03-24T15:36:43.611Z,6.95
2019-03-24T15:39:12.379Z,6.00
2019-03-24T15:41:48.243Z,6.70
2019-03-24T15:44:23.113Z,6.90
2019-03-24T15:47:06.028Z,9.88
2019-03-24T15:49:52.885Z,6.10
2019-03-24T15:52:25.824Z,6.90
2019-03-24T15:54:55.392Z,8.75
2019-03-24T15:57:26.109Z,8.50
2019-03-24T16:00:10.620Z,6.42
2019-03-24T16:02:40.655Z,3.92
2019-03-24T16:05:12.290Z,7.28
2019-03-24T16:07:41.473Z,3.67
2019-03-24T16:10:12.587Z,5.50
2019-03-24T16:12:50.844Z,4.75
2019-03-24T16:15:20.390Z,7.03
2019-03-24T16:18:07.223Z,5.25
2019-03-24T16:20:54.317Z,8.30
2019-03-24T16:23:41.045Z,6.97
2019-03-24T16:26:27.514Z,12.37
2019-03-24T16:29:14.576Z,9.28
2019-03-24T16:32:02.139Z,11.22
2019-03-24T16:34:49.049Z,8.65
2019-03-24T16:37:36.029Z,8.20
2019-03-24T16:40:23.949Z,10.68
2019-03-24T16:43:10.895Z,9.48
2019-03-24T16:45:57.208Z,7.05
2019-03-24T16:48:51.470Z,5.95
2019-03-24T16:51:22.986Z,9.20
2019-03-24T16:53:54.972Z,8.70
2019-03-24T16:56:46.254Z,8.20
2019-03-24T16:59:26.260Z,7.20
2019-03-24T17:02:02.403Z,8.55
2019-03-24T17:04:53.124Z,7.33
2019-03-24T17:07:27.255Z,5.87
2019-03-24T17:10:08.698Z,5.87
2019-03-24T17:13:04.352Z,7.03
2019-03-24T17:15:40.165Z,8.55
2019-03-24T17:18:12.002Z,4.83
2019-03-24T17:20:45.877Z,7.85
2019-03-24T17:23:16.608Z,11.15
2019-03-24T17:26:00.011Z,6.08
2019-03-24T17:28:55.013Z,3.33
2019-03-24T17:31:34.365Z,4.83
2019-03-24T17:34:06.369Z,7.08
2019-03-24T17:36:49.194Z,5.78
2019-03-24T17:39:31.328Z,8.90
2019-03-24T17:42:05.848Z,8.55
2019-03-24T17:44:41.017Z,5.37
2019-03-24T17:47:18.047Z,7.70
2019-03-24T17:49:51.496Z,6.42
2019-03-24T17:52:26.813Z,8.60
2019-03-24T17:54:59.709Z,6.55
2019-03-24T17:57:32.681Z,3.75
2019-03-24T18:00:05.778Z,7.00
2019-03-24T18:02:37.890Z,4.20
2019-03-24T18:05:10.421Z,5.28
2019-03-24T18:07:57.167Z,2.72
2019-03-24T18:10:43.843Z,3.20
2019-03-24T18:13:33.149Z,3.90
2019-03-24T18:16:19.899Z,5.28
2019-03-24T18:19:06.996Z,4.85
2019-03-24T18:21:53.745Z,8.90
2019-03-24T18:24:40.652Z,3.98
2019-03-24T18:27:27.608Z,6.20
2019-03-24T18:30:15.213Z,10.38
2019-03-24T18:33:01.933Z,3.45
2019-03-24T18:35:48.645Z,9.50
2019-03-24T18:38:37.228Z,4.70
2019-03-24T18:41:10.252Z,5.03
2019-03-24T18:47:16.291Z,4.90
2019-03-24T18:49:46.458Z,8.55
2019-03-24T18:52:22.547Z,6.85
2019-03-24T18:55:04.033Z,7.40
2019-03-24T18:57:50.712Z,4.72
2019-03-24T19:00:37.861Z,4.22
2019-03-24T19:03:24.838Z,6.62
2019-03-24T19:06:11.588Z,6.37
2019-03-24T19:09:00.657Z,5.65
2019-03-24T19:11:47.519Z,5.95
2019-03-24T19:14:34.571Z,8.65
2019-03-24T19:17:21.383Z,3.47
2019-03-24T19:20:16.999Z,6.37
2019-03-24T19:23:03.710Z,5.58
2019-03-24T19:25:50.704Z,6.30
2019-03-24T19:28:37.656Z,5.25
2019-03-24T19:31:24.269Z,4.25
2019-03-24T19:34:11.080Z,4.53
2019-03-24T19:36:59.026Z,4.12
2019-03-24T19:39:36.296Z,7.15
2019-03-24T19:42:15.633Z,3.62
2019-03-24T19:44:45.035Z,3.22
2019-03-24T19:47:14.419Z,5.50
2019-03-24T19:49:50.686Z,6.40
2019-03-24T19:52:30.510Z,4.20
2019-03-24T19:55:00.984Z,4.70
2019-03-24T19:57:31.396Z,4.55
2019-03-24T20:00:17.551Z,3.65
2019-03-24T20:03:11.484Z,4.12
2019-03-24T20:06:15.374Z,4.53
2019-03-24T20:08:51.369Z,4.47
2019-03-24T20:11:21.410Z,3.22
2019-03-24T20:13:57.004Z,6.70
2019-03-24T20:16:30.079Z,7.05
2019-03-24T20:19:07.563Z,4.40
2019-03-24T20:21:40.581Z,3.02
2019-03-24T20:24:10.210Z,4.83
2019-03-24T20:26:43.710Z,5.40
2019-03-24T20:29:14.733Z,5.97
2019-03-24T20:31:53.735Z,2.98
2019-03-24T20:34:23.365Z,4.15
2019-03-24T20:37:12.456Z,4.62
2019-03-24T20:39:52.951Z,3.30
2019-03-24T20:42:31.634Z,3.80
2019-03-24T20:45:25.971Z,5.65
2019-03-24T20:48:15.867Z,2.98
2019-03-24T20:50:50.501Z,4.17
2019-03-24T20:53:34.185Z,4.15
2019-03-24T20:56:08.448Z,4.85
2019-03-24T20:58:47.463Z,3.37
2019-03-24T21:01:23.146Z,5.17
2019-03-24T21:04:16.517Z,4.53
2019-03-24T21:06:46.395Z,4.58
2019-03-24T21:09:22.017Z,7.30
2019-03-24T21:12:09.887Z,3.10
2019-03-24T21:15:00.362Z,5.58
2019-03-24T21:18:01.620Z,3.92
2019-03-24T21:21:07.095Z,5.03
2019-03-24T21:24:06.855Z,3.55
2019-03-24T21:26:54.086Z,6.45
2019-03-24T21:29:26.983Z,5.37
2019-03-24T21:32:20.093Z,3.77
2019-03-24T21:35:14.270Z,11.00
2019-03-24T21:37:51.275Z,7.65
2019-03-24T21:40:24.129Z,3.52
2019-03-24T21:43:02.968Z,6.15
2019-03-24T21:45:50.981Z,5.58
2019-03-24T21:48:24.762Z,4.25
2019-03-24T21:50:57.455Z,4.45
2019-03-24T21:53:55.515Z,5.33
2019-03-24T21:56:34.971Z,4.33
2019-03-24T21:59:15.889Z,5.15
2019-03-24T22:01:54.577Z,4.12
2019-03-24T22:04:25.876Z,4.50
2019-03-24T22:07:05.096Z,3.02
2019-03-24T22:09:38.461Z,3.65
2019-03-24T22:12:23.576Z,5.15
2019-03-24T22:15:11.503Z,13.03
2019-03-24T22:17:45.730Z,2.92
2019-03-24T22:20:18.360Z,5.03
2019-03-24T22:22:49.939Z,3.08
2019-03-24T22:25:25.376Z,7.70
2019-03-24T22:28:14.346Z,2.50
2019-03-24T22:31:10.678Z,5.47
2019-03-24T22:33:47.439Z,4.65
2019-03-24T22:36:23.096Z,4.65
2019-03-24T22:38:53.518Z,3.87
2019-03-24T22:41:23.856Z,4.40
2019-03-24T22:44:10.754Z,4.90
2019-03-24T22:46:59.078Z,5.30
2019-03-24T22:49:45.825Z,2.10
2019-03-24T22:52:32.870Z,4.78
2019-03-24T22:55:19.700Z,3.58
2019-03-24T22:58:06.606Z,5.15
2019-03-24T23:00:55.375Z,3.50
2019-03-24T23:03:42.176Z,3.70
2019-03-24T23:06:28.972Z,3.42
2019-03-24T23:09:15.828Z,4.28
2019-03-24T23:12:02.907Z,4.05
2019-03-24T23:14:49.895Z,6.35
2019-03-24T23:18:03.280Z,3.87
2019-03-24T23:21:18.643Z,3.47
2019-03-24T23:24:17.193Z,3.52
2019-03-24T23:26:52.171Z,8.08
2019-03-24T23:29:23.484Z,3.25
2019-03-24T23:31:57.670Z,6.55
2019-03-24T23:34:27.713Z,4.55
2019-03-24T23:36:58.963Z,5.25
2019-03-24T23:39:32.591Z,4.35
2019-03-24T23:42:05.337Z,2.58
2019-03-24T23:44:57.513Z,4.53
2019-03-24T23:47:31.733Z,6.70
2019-03-24T23:50:02.793Z,6.37
2019-03-24T23:52:32.773Z,5.00
2019-03-24T23:55:03.830Z,7.83
2019-03-24T23:57:36.641Z,5.03
